Teddy Meyer — WDF9635 — position and weather

sailwx.info

Track history (hours):
 
Tides and Currents Weather Stations Pressure Air Temp Water Temp Dewpoint Dewpoint Depression Visibility Wind Speed Wind Dir Waves Ship Positions

Teddy Meyer

Owner: LeBeouf Bros. Towing, LLC, Houma, LA. More information available from US FCC via Universal Licensing System and Coast Guard Vessel Documentation Center.

Last reported at 2015-Jan-29 16:33 UTC. Time now 2015-Feb-01 10:15 UTC.
Position N 29°27' W 094°51'.

; draft 3 m.

MMSI: 367507220.

Date/timePositionNaut miles runAvg speedWind from/ knotsBaromVisibWave heightAir tempDewpointWater temp
2015-Jan-29 16:33N 29°27' W 094°51'9 8.6
2015-Jan-29 15:33N 29°34' W 094°56'7 6.6
2015-Jan-29 14:33N 29°40' W 094°59'5 4.6
2015-Jan-29 13:33N 29°44' W 095°02'5 5.4
2015-Jan-29 12:33N 29°44' W 095°08'0 0.0
2015-Jan-29 11:33N 29°44' W 095°08'0 0.0
2015-Jan-29 10:33N 29°44' W 095°08'0 0.0
2015-Jan-29 09:33N 29°44' W 095°08'0 0.0
2015-Jan-29 08:33N 29°44' W 095°08'0 0.0
2015-Jan-29 07:33N 29°44' W 095°08'0 0.0
2015-Jan-29 06:33N 29°44' W 095°08'3 3.2
2015-Jan-29 05:33N 29°45' W 095°12'0 0.1
2015-Jan-29 04:33N 29°45' W 095°12'0 0.0
2015-Jan-29 03:33N 29°45' W 095°12'0 0.0
2015-Jan-29 02:33N 29°45' W 095°12'0 0.0
2015-Jan-29 01:33N 29°45' W 095°12'0 0.0
2015-Jan-29 00:33N 29°45' W 095°12'0 0.0
2015-Jan-28 23:33N 29°45' W 095°12'0 0.0
2015-Jan-28 22:33N 29°45' W 095°12'0 0.0
2015-Jan-28 21:33N 29°45' W 095°12'0 0.0
2015-Jan-28 20:33N 29°45' W 095°12'0 0.0
2015-Jan-28 19:33N 29°45' W 095°12'0 0.0
2015-Jan-28 18:33N 29°45' W 095°12'0 0.0
2015-Jan-28 17:33N 29°45' W 095°12'0 0.0
2015-Jan-28 16:33N 29°45' W 095°12'0 0.0
2015-Jan-28 15:33N 29°45' W 095°12'0 0.0
2015-Jan-28 14:33N 29°45' W 095°12'0 0.0
2015-Jan-28 13:33N 29°45' W 095°12'0 0.0
2015-Jan-28 12:33N 29°45' W 095°12'0 0.0
2015-Jan-28 11:33N 29°45' W 095°12'0 0.0
2015-Jan-28 10:33N 29°45' W 095°12'0 0.0
2015-Jan-28 09:33N 29°45' W 095°12'1 0.7
2015-Jan-28 08:33N 29°45' W 095°11'6 5.5
2015-Jan-28 07:33N 29°46' W 095°05'2 1.8
2015-Jan-28 06:33N 29°47' W 095°04'0 0.4
2015-Jan-28 05:33N 29°47' W 095°04'2 1.9
2015-Jan-28 04:33N 29°46' W 095°06'0 0.0
2015-Jan-28 03:33N 29°46' W 095°06'0 0.0
2015-Jan-28 02:33N 29°46' W 095°06'0 0.0
2015-Jan-28 01:33N 29°46' W 095°06'0 0.0
2015-Jan-28 00:33N 29°46' W 095°06'0 0.0
2015-Jan-27 23:33N 29°46' W 095°06'0 0.0
2015-Jan-27 22:33N 29°46' W 095°06'0 0.0
2015-Jan-27 21:33N 29°46' W 095°06'0 0.0
2015-Jan-27 20:33N 29°46' W 095°06'0 0.0
2015-Jan-27 19:33N 29°46' W 095°06'0 0.0
2015-Jan-27 18:33N 29°46' W 095°06'0 0.0
2015-Jan-27 17:33N 29°46' W 095°06'0 0.0
2015-Jan-27 16:33N 29°46' W 095°06'0 0.0
2015-Jan-27 15:33N 29°46' W 095°06'0 0.0
2015-Jan-27 14:33N 29°46' W 095°06'0 0.0
2015-Jan-27 13:33N 29°46' W 095°06'0 0.0
2015-Jan-27 06:25N 29°46' W 095°06'0 0.0
2015-Jan-27 05:33N 29°46' W 095°06'0 0.0
2015-Jan-27 04:33N 29°46' W 095°06'0 0.0
2015-Jan-27 03:33N 29°46' W 095°06'0 0.0
2015-Jan-27 02:33N 29°46' W 095°06'0 0.0
2015-Jan-27 01:33N 29°46' W 095°06'0 0.0
2015-Jan-27 00:33N 29°46' W 095°06'0 0.0
2015-Jan-26 23:31N 29°46' W 095°06'0 0.0
2015-Jan-26 22:30N 29°46' W 095°06'0 0.0
2015-Jan-26 21:33N 29°46' W 095°06'0 0.0
2015-Jan-26 20:32N 29°46' W 095°06'0 0.0
2015-Jan-26 19:33N 29°46' W 095°06'0 0.0
2015-Jan-26 18:33N 29°46' W 095°06'0 0.0
2015-Jan-26 17:33N 29°46' W 095°06'0 0.0
2015-Jan-26 16:33N 29°46' W 095°06'0 0.0
2015-Jan-26 15:33N 29°46' W 095°06'0 0.0
2015-Jan-26 14:33N 29°46' W 095°06'0 0.0
2015-Jan-26 13:33N 29°46' W 095°06'0 0.0
2015-Jan-26 11:11N 29°46' W 095°06'0 0.0
2015-Jan-26 09:06N 29°46' W 095°06'0 0.0
2015-Jan-26 08:23N 29°46' W 095°06'0 0.0
2015-Jan-26 04:24N 29°46' W 095°06'0 0.0
2015-Jan-25 23:23N 29°46' W 095°06'0 0.0
2015-Jan-25 22:26N 29°46' W 095°06'0 0.0
2015-Jan-25 21:20N 29°46' W 095°06'0 0.0
2015-Jan-25 20:21N 29°46' W 095°06'0 0.0
2015-Jan-25 19:25N 29°46' W 095°06'0 0.0
2015-Jan-25 18:18N 29°46' W 095°06'0 0.0
2015-Jan-25 16:33N 29°46' W 095°06'0 0.0
2015-Jan-25 15:11N 29°46' W 095°06'0 0.0
2015-Jan-25 14:25N 29°46' W 095°06'0 0.0
2015-Jan-25 13:31N 29°46' W 095°06'0 0.0
2015-Jan-25 12:16N 29°46' W 095°06'0 0.0
2015-Jan-25 11:33N 29°46' W 095°06'0 0.0
2015-Jan-25 10:30N 29°46' W 095°06'0 0.0
2015-Jan-25 09:33N 29°46' W 095°06'0 0.0
2015-Jan-25 08:33N 29°46' W 095°06'0 0.0
2015-Jan-25 07:33N 29°46' W 095°06'0 0.0
2015-Jan-24 20:27N 29°46' W 095°06'0 0.0
2015-Jan-24 19:18N 29°46' W 095°06'0 0.0
2015-Jan-24 18:33N 29°46' W 095°06'0 0.0
2015-Jan-24 17:24N 29°46' W 095°06'0 0.0
2015-Jan-24 16:32N 29°46' W 095°06'0 0.0
2015-Jan-24 15:33N 29°46' W 095°06'0 0.0
2015-Jan-24 14:28N 29°46' W 095°06'0 0.0
2015-Jan-24 13:33N 29°46' W 095°06'0 0.0
2015-Jan-24 12:33N 29°46' W 095°06'0 0.0
2015-Jan-24 11:09N 29°46' W 095°06'0 0.0
2015-Jan-24 10:25N 29°46' W 095°06'0 0.0
2015-Jan-24 09:30N 29°46' W 095°06'0 0.0
2015-Jan-24 06:30N 29°46' W 095°06'0 0.0
2015-Jan-24 04:33N 29°46' W 095°06'0 0.0
2015-Jan-24 03:13N 29°46' W 095°06'0 0.0
2015-Jan-24 01:29N 29°46' W 095°06'0 0.0
2015-Jan-23 23:33N 29°46' W 095°06'0 0.0
2015-Jan-23 22:18N 29°46' W 095°06'0 0.0
2015-Jan-23 21:29N 29°46' W 095°06'0 0.0
2015-Jan-23 20:26N 29°46' W 095°06'2 1.9
2015-Jan-23 19:33N 29°47' W 095°04'2 1.6
2015-Jan-23 18:33N 29°45' W 095°04'4 4.2
2015-Jan-23 17:33N 29°42' W 095°01'7 7.4
2015-Jan-23 16:33N 29°36' W 094°57'8 7.9
2015-Jan-23 15:33N 29°29' W 094°52'8 6.8
2015-Jan-23 14:24N 29°22' W 094°47'  
Track history (hours):
 
Tides and Currents Weather Stations Pressure Air Temp Water Temp Dewpoint Dewpoint Depression Visibility Wind Speed Wind Dir Waves Ship Positions

Teddy Meyer

Owner: LeBeouf Bros. Towing, LLC, Houma, LA. More information available from US FCC via Universal Licensing System and Coast Guard Vessel Documentation Center.

Last reported at 2015-Jan-29 16:33 UTC. Time now 2015-Feb-01 10:15 UTC.
Position N 29°27' W 094°51'.

; draft 3 m.

MMSI: 367507220.

Date/timePositionNaut miles runAvg speedWind from/ knotsBaromVisibWave heightAir tempDewpointWater temp
2015-Jan-29 16:33N 29°27' W 094°51'9 8.6
2015-Jan-29 15:33N 29°34' W 094°56'7 6.6
2015-Jan-29 14:33N 29°40' W 094°59'5 4.6
2015-Jan-29 13:33N 29°44' W 095°02'5 5.4
2015-Jan-29 12:33N 29°44' W 095°08'0 0.0
2015-Jan-29 11:33N 29°44' W 095°08'0 0.0
2015-Jan-29 10:33N 29°44' W 095°08'0 0.0
2015-Jan-29 09:33N 29°44' W 095°08'0 0.0
2015-Jan-29 08:33N 29°44' W 095°08'0 0.0
2015-Jan-29 07:33N 29°44' W 095°08'0 0.0
2015-Jan-29 06:33N 29°44' W 095°08'3 3.2
2015-Jan-29 05:33N 29°45' W 095°12'0 0.1
2015-Jan-29 04:33N 29°45' W 095°12'0 0.0
2015-Jan-29 03:33N 29°45' W 095°12'0 0.0
2015-Jan-29 02:33N 29°45' W 095°12'0 0.0
2015-Jan-29 01:33N 29°45' W 095°12'0 0.0
2015-Jan-29 00:33N 29°45' W 095°12'0 0.0
2015-Jan-28 23:33N 29°45' W 095°12'0 0.0
2015-Jan-28 22:33N 29°45' W 095°12'0 0.0
2015-Jan-28 21:33N 29°45' W 095°12'0 0.0
2015-Jan-28 20:33N 29°45' W 095°12'0 0.0
2015-Jan-28 19:33N 29°45' W 095°12'0 0.0
2015-Jan-28 18:33N 29°45' W 095°12'0 0.0
2015-Jan-28 17:33N 29°45' W 095°12'0 0.0
2015-Jan-28 16:33N 29°45' W 095°12'0 0.0
2015-Jan-28 15:33N 29°45' W 095°12'0 0.0
2015-Jan-28 14:33N 29°45' W 095°12'0 0.0
2015-Jan-28 13:33N 29°45' W 095°12'0 0.0
2015-Jan-28 12:33N 29°45' W 095°12'0 0.0
2015-Jan-28 11:33N 29°45' W 095°12'0 0.0
2015-Jan-28 10:33N 29°45' W 095°12'0 0.0
2015-Jan-28 09:33N 29°45' W 095°12'1 0.7
2015-Jan-28 08:33N 29°45' W 095°11'6 5.5
2015-Jan-28 07:33N 29°46' W 095°05'2 1.8
2015-Jan-28 06:33N 29°47' W 095°04'0 0.4
2015-Jan-28 05:33N 29°47' W 095°04'2 1.9
2015-Jan-28 04:33N 29°46' W 095°06'0 0.0
2015-Jan-28 03:33N 29°46' W 095°06'0 0.0
2015-Jan-28 02:33N 29°46' W 095°06'0 0.0
2015-Jan-28 01:33N 29°46' W 095°06'0 0.0
2015-Jan-28 00:33N 29°46' W 095°06'0 0.0
2015-Jan-27 23:33N 29°46' W 095°06'0 0.0
2015-Jan-27 22:33N 29°46' W 095°06'0 0.0
2015-Jan-27 21:33N 29°46' W 095°06'0 0.0
2015-Jan-27 20:33N 29°46' W 095°06'0 0.0
2015-Jan-27 19:33N 29°46' W 095°06'0 0.0
2015-Jan-27 18:33N 29°46' W 095°06'0 0.0
2015-Jan-27 17:33N 29°46' W 095°06'0 0.0
2015-Jan-27 16:33N 29°46' W 095°06'0 0.0
2015-Jan-27 15:33N 29°46' W 095°06'0 0.0
2015-Jan-27 14:33N 29°46' W 095°06'0 0.0
2015-Jan-27 13:33N 29°46' W 095°06'0 0.0
2015-Jan-27 06:25N 29°46' W 095°06'0 0.0
2015-Jan-27 05:33N 29°46' W 095°06'0 0.0
2015-Jan-27 04:33N 29°46' W 095°06'0 0.0
2015-Jan-27 03:33N 29°46' W 095°06'0 0.0
2015-Jan-27 02:33N 29°46' W 095°06'0 0.0
2015-Jan-27 01:33N 29°46' W 095°06'0 0.0
2015-Jan-27 00:33N 29°46' W 095°06'0 0.0
2015-Jan-26 23:31N 29°46' W 095°06'0 0.0
2015-Jan-26 22:30N 29°46' W 095°06'0 0.0
2015-Jan-26 21:33N 29°46' W 095°06'0 0.0
2015-Jan-26 20:32N 29°46' W 095°06'0 0.0
2015-Jan-26 19:33N 29°46' W 095°06'0 0.0
2015-Jan-26 18:33N 29°46' W 095°06'0 0.0
2015-Jan-26 17:33N 29°46' W 095°06'0 0.0
2015-Jan-26 16:33N 29°46' W 095°06'0 0.0
2015-Jan-26 15:33N 29°46' W 095°06'0 0.0
2015-Jan-26 14:33N 29°46' W 095°06'0 0.0
2015-Jan-26 13:33N 29°46' W 095°06'0 0.0
2015-Jan-26 11:11N 29°46' W 095°06'0 0.0
2015-Jan-26 09:06N 29°46' W 095°06'0 0.0
2015-Jan-26 08:23N 29°46' W 095°06'0 0.0
2015-Jan-26 04:24N 29°46' W 095°06'0 0.0
2015-Jan-25 23:23N 29°46' W 095°06'0 0.0
2015-Jan-25 22:26N 29°46' W 095°06'0 0.0
2015-Jan-25 21:20N 29°46' W 095°06'0 0.0
2015-Jan-25 20:21N 29°46' W 095°06'0 0.0
2015-Jan-25 19:25N 29°46' W 095°06'0 0.0
2015-Jan-25 18:18N 29°46' W 095°06'0 0.0
2015-Jan-25 16:33N 29°46' W 095°06'0 0.0
2015-Jan-25 15:11N 29°46' W 095°06'0 0.0
2015-Jan-25 14:25N 29°46' W 095°06'0 0.0
2015-Jan-25 13:31N 29°46' W 095°06'0 0.0
2015-Jan-25 12:16N 29°46' W 095°06'0 0.0
2015-Jan-25 11:33N 29°46' W 095°06'0 0.0
2015-Jan-25 10:30N 29°46' W 095°06'0 0.0
2015-Jan-25 09:33N 29°46' W 095°06'0 0.0
2015-Jan-25 08:33N 29°46' W 095°06'0 0.0
2015-Jan-25 07:33N 29°46' W 095°06'0 0.0
2015-Jan-24 20:27N 29°46' W 095°06'0 0.0
2015-Jan-24 19:18N 29°46' W 095°06'0 0.0
2015-Jan-24 18:33N 29°46' W 095°06'0 0.0
2015-Jan-24 17:24N 29°46' W 095°06'0 0.0
2015-Jan-24 16:32N 29°46' W 095°06'0 0.0
2015-Jan-24 15:33N 29°46' W 095°06'0 0.0
2015-Jan-24 14:28N 29°46' W 095°06'0 0.0
2015-Jan-24 13:33N 29°46' W 095°06'0 0.0
2015-Jan-24 12:33N 29°46' W 095°06'0 0.0
2015-Jan-24 11:09N 29°46' W 095°06'0 0.0
2015-Jan-24 10:25N 29°46' W 095°06'0 0.0
2015-Jan-24 09:30N 29°46' W 095°06'0 0.0
2015-Jan-24 06:30N 29°46' W 095°06'0 0.0
2015-Jan-24 04:33N 29°46' W 095°06'0 0.0
2015-Jan-24 03:13N 29°46' W 095°06'0 0.0
2015-Jan-24 01:29N 29°46' W 095°06'0 0.0
2015-Jan-23 23:33N 29°46' W 095°06'0 0.0
2015-Jan-23 22:18N 29°46' W 095°06'0 0.0
2015-Jan-23 21:29N 29°46' W 095°06'0 0.0
2015-Jan-23 20:26N 29°46' W 095°06'2 1.9
2015-Jan-23 19:33N 29°47' W 095°04'2 1.6
2015-Jan-23 18:33N 29°45' W 095°04'4 4.2
2015-Jan-23 17:33N 29°42' W 095°01'7 7.4
2015-Jan-23 16:33N 29°36' W 094°57'8 7.9
2015-Jan-23 15:33N 29°29' W 094°52'8 6.8
2015-Jan-23 14:24N 29°22' W 094°47'  

Dump ship's entire track history